Air Quality Table

TIMESTAMP NO2 O3 PM2.5 TEMP HUM AIRPRES WS WD NO
2021-08-02 17:00 9.65 ug/m3 95.56 ug/m3 20.15 ug/m3 36.68 C 26.88 % 999.93 mbar 1.55 m/s 255.73 Deg 1.44 ug/m3
2021-08-02 09:00 16.83 ug/m3 70.41 ug/m3 15.99 ug/m3 29.61 C 52.45 % 999.37 mbar 0.74 m/s 245.41 Deg 1.07 ug/m3
2021-08-02 01:00 7.99 ug/m3 71.99 ug/m3 12.82 ug/m3 31.76 C 39.93 % 999.21 mbar 0.8 m/s 316.9 Deg 0.12 ug/m3
2021-08-01 17:00 5.27 ug/m3 99.6 ug/m3 16.25 ug/m3 37.11 C 22.67 % 998.66 mbar 1.92 m/s 210.34 Deg 0.6 ug/m3
2021-08-01 09:00 8.2 ug/m3 71.04 ug/m3 16.53 ug/m3 30.1 C 42.44 % 998.35 mbar 0.81 m/s 274.92 Deg 0.24 ug/m3
2021-08-01 01:00 14.97 ug/m3 71.6 ug/m3 15.95 ug/m3 30.44 C 56.6 % 998.53 mbar 0.93 m/s 165.44 Deg 0.27 ug/m3
2021-07-31 17:00 9.46 ug/m3 98.76 ug/m3 17.44 ug/m3 35.71 C 38.49 % 997.97 mbar 1.47 m/s 197.94 Deg 1.12 ug/m3
2021-07-31 09:00 9.85 ug/m3 85.11 ug/m3 15.35 ug/m3 29.25 C 55.52 % 998.40 mbar 1.24 m/s 308.79 Deg 0.8 ug/m3
2021-07-31 01:00 6.53 ug/m3 75.7 ug/m3 13.49 ug/m3 30.26 C 36.91 % 999.41 mbar 1.03 m/s 264.11 Deg 0.11 ug/m3
2021-07-30 17:00 4.97 ug/m3 81.42 ug/m3 15.97 ug/m3 35.06 C 22.41 % 1,000.69 mbar 1.9 m/s 302.09 Deg 0.83 ug/m3
2021-07-30 09:00 12.74 ug/m3 79.22 ug/m3 12.75 ug/m3 29.34 C 30.34 % 1,001.09 mbar 0.65 m/s 243.19 Deg 0.9 ug/m3
2021-07-30 01:00 7.21 ug/m3 92.96 ug/m3 10.26 ug/m3 30.21 C 26.71 % 1,001.43 mbar 0.78 m/s 283.92 Deg 0.11 ug/m3
2021-07-29 17:00 5.76 ug/m3 105.07 ug/m3 11.88 ug/m3 33.91 C 28.37 % 1,001.83 mbar 1.89 m/s 277.98 Deg 0.88 ug/m3
2021-07-29 09:00 16.09 ug/m3 84.75 ug/m3 12.79 ug/m3 29.36 C 28.72 % 1,001.59 mbar 0.95 m/s 278.56 Deg 0.65 ug/m3
2021-07-29 01:00 10.53 ug/m3 89.61 ug/m3 11.57 ug/m3 28.66 C 45.41 % 1,002.28 mbar 1.01 m/s 222.87 Deg 0.17 ug/m3
2021-07-28 17:00 6.81 ug/m3 113.25 ug/m3 10.92 ug/m3 33.11 C 26.03 % 1,002.65 mbar 2.29 m/s 72.92 Deg 0.75 ug/m3
2021-07-28 09:00 14.12 ug/m3 92.06 ug/m3 9.91 ug/m3 27.3 C 36.96 % 1,002.96 mbar 1.2 m/s 225.04 Deg 0.77 ug/m3
2021-07-28 01:00 14.45 ug/m3 82.95 ug/m3 10.78 ug/m3 28.09 C 46.59 % 1,003.86 mbar 0.7 m/s 231.46 Deg 0.15 ug/m3
2021-07-27 17:00 6.01 ug/m3 109.46 ug/m3 10.98 ug/m3 30.97 C 48.47 % 1,004.72 mbar 1.74 m/s 154.17 Deg 0.72 ug/m3
2021-07-27 09:00 13.9 ug/m3 64.74 ug/m3 12.71 ug/m3 25.66 C 85.24 % 1,004.57 mbar 0.79 m/s 215.42 Deg 1.9 ug/m3
2021-07-27 01:00 3.25 ug/m3 79.11 ug/m3 9.18 ug/m3 26.63 C 77.33 % 1,003.67 mbar 2.19 m/s 174.6 Deg 0.21 ug/m3
2021-07-26 17:00 6.16 ug/m3 91.48 ug/m3 10.55 ug/m3 30.71 C 41.59 % 1,003.38 mbar 2.4 m/s 201.12 Deg 1.25 ug/m3
2021-07-26 09:00 20.33 ug/m3 55.16 ug/m3 9.9 ug/m3 25.73 C 76.51 % 1,002.28 mbar 1.22 m/s 196.35 Deg 4.38 ug/m3
2021-07-26 01:00 7.51 ug/m3 72.14 ug/m3 16.68 ug/m3 27.2 C 62.85 % 1,001.70 mbar 1.14 m/s 205.34 Deg 0.18 ug/m3
2021-07-25 17:00 2.74 ug/m3 108.31 ug/m3 5.8 ug/m3 32.1 C 30.11 % 1,001.95 mbar 1.63 m/s 232.2 Deg 0.29 ug/m3
2021-07-25 09:00 12.08 ug/m3 65.99 ug/m3 13.33 ug/m3 25.95 C 46.78 % 1,001.39 mbar 0.41 m/s 235.68 Deg 0.73 ug/m3
2021-07-25 01:00 5.45 ug/m3 87.08 ug/m3 8.2 ug/m3 27.22 C 43.3 % 1,001.83 mbar 0.76 m/s 291.65 Deg 0.09 ug/m3
2021-07-24 17:00 3.12 ug/m3 97.71 ug/m3 8.17 ug/m3 32.12 C 31.95 % 1,001.65 mbar 1.67 m/s 286.72 Deg 0.57 ug/m3
2021-07-24 09:00 6.45 ug/m3 89.29 ug/m3 7.52 ug/m3 26 C 61.21 % 1,001.60 mbar 1 m/s 309.91 Deg 0.3 ug/m3
2021-07-24 01:00 13.52 ug/m3 77.66 ug/m3 10.03 ug/m3 26.98 C 53.31 % 1,002.09 mbar 0.9 m/s 242.49 Deg 0.09 ug/m3
2021-07-23 17:00 8.17 ug/m3 114.22 ug/m3 12.44 ug/m3 31.49 C 41.48 % 1,002.18 mbar 1.56 m/s 240.49 Deg 1.03 ug/m3
2021-07-23 09:00 12.11 ug/m3 74.08 ug/m3 10.33 ug/m3 25.81 C 75 % 1,002.27 mbar 1.19 m/s 186.17 Deg 1.09 ug/m3
2021-07-23 01:00 2.05 ug/m3 106.06 ug/m3 7.86 ug/m3 27.37 C 51.38 % 1,002.67 mbar 1.71 m/s 322.62 Deg 0.08 ug/m3
2021-07-22 17:00 3.87 ug/m3 103.25 ug/m3 12.02 ug/m3 31.65 C 41.86 % 1,003.68 mbar 1.77 m/s 217.22 Deg 0.56 ug/m3
2021-07-22 09:00 11.23 ug/m3 73.35 ug/m3 12.35 ug/m3 25.16 C 70.34 % 1,003.90 mbar 0.82 m/s 253.79 Deg 0.59 ug/m3
2021-07-22 01:00 5.47 ug/m3 89.84 ug/m3 11.96 ug/m3 25.81 C 77.41 % 1,003.99 mbar 1.16 m/s 153.29 Deg 0.11 ug/m3
2021-07-21 17:00 7.49 ug/m3 107.33 ug/m3 13.68 ug/m3 29.78 C 50.62 % 1,003.50 mbar 1.82 m/s 204.32 Deg 1.12 ug/m3
2021-07-21 09:00 18.41 ug/m3 76.56 ug/m3 18.76 ug/m3 24.84 C 74.25 % 1,003.05 mbar 0.57 m/s 264.25 Deg 1.7 ug/m3
2021-07-21 01:00 5.12 ug/m3 108.08 ug/m3 13.26 ug/m3 25.45 C 75.61 % 1,002.15 mbar 1.25 m/s 153.48 Deg 0.15 ug/m3
2021-07-20 17:00 9.01 ug/m3 114.23 ug/m3 16.64 ug/m3 27.93 C 62.98 % 1,000.11 mbar 2.09 m/s 235.6 Deg 1.21 ug/m3
2021-07-20 09:00 5.59 ug/m3 87.17 ug/m3 11.68 ug/m3 24.04 C 85.07 % 998.63 mbar 0.97 m/s 293.51 Deg 0.44 ug/m3
2021-07-20 01:00 1.9 ug/m3 102.06 ug/m3 11.98 ug/m3 24.37 C 81.65 % 998.04 mbar 0.96 m/s 312.54 Deg 0.05 ug/m3
2021-07-19 17:00 3.11 ug/m3 112.15 ug/m3 10.26 ug/m3 27.58 C 59.31 % 996.53 mbar 2 m/s 257.48 Deg 0.38 ug/m3
2021-07-19 09:00 9.42 ug/m3 84.15 ug/m3 14.39 ug/m3 23.56 C 75.26 % 995.35 mbar 1.27 m/s 168.17 Deg 0.57 ug/m3
2021-07-19 01:00 1.53 ug/m3 104.78 ug/m3 9.68 ug/m3 24.09 C 78.54 % 994.10 mbar 2.07 m/s 325.62 Deg 0.04 ug/m3
2021-07-18 17:00 0.8 ug/m3 111.01 ug/m3 15.93 ug/m3 26.28 C 67.61 % 993.80 mbar 2.75 m/s 305.17 Deg 0.13 ug/m3
2021-07-18 09:00 1.56 ug/m3 95.41 ug/m3 8.25 ug/m3 23.37 C 79.11 % 995.07 mbar 1.64 m/s 310.6 Deg 0.12 ug/m3
2021-07-18 01:00 0.83 ug/m3 95.37 ug/m3 9.75 ug/m3 23.74 C 73.92 % 996.58 mbar 2.1 m/s 333.09 Deg 0.05 ug/m3
2021-07-17 17:00 1.55 ug/m3 95.52 ug/m3 18.67 ug/m3 26.08 C 62.56 % 998.11 mbar 2.82 m/s 325.12 Deg 0.3 ug/m3
2021-07-17 09:00 2.76 ug/m3 84.15 ug/m3 9.13 ug/m3 23.63 C 75.52 % 998.95 mbar 1.94 m/s 319.12 Deg 0.28 ug/m3
2021-07-17 01:00 2.02 ug/m3 86.11 ug/m3 9.94 ug/m3 24.6 C 66.92 % 999.95 mbar 2.04 m/s 331.92 Deg 0.12 ug/m3
2021-07-16 17:00 3.86 ug/m3 88.61 ug/m3 11.24 ug/m3 29.2 C 47.16 % 1,000.49 mbar 2.07 m/s 313.71 Deg 0.72 ug/m3
2021-07-16 09:00 8.95 ug/m3 54.35 ug/m3 8.2 ug/m3 24.6 C 79.84 % 1,000.47 mbar 1.02 m/s 232.93 Deg 0.99 ug/m3
2021-07-16 01:00 2.87 ug/m3 71.23 ug/m3 7.69 ug/m3 25.18 C 67.9 % 1,001.59 mbar 1.25 m/s 318.54 Deg 0.08 ug/m3
2021-07-15 17:00 3.59 ug/m3 80.58 ug/m3 12.42 ug/m3 28.78 C 54.25 % 1,002.11 mbar 1.74 m/s 285.6 Deg 0.52 ug/m3
2021-07-15 09:00 15.91 ug/m3 46.3 ug/m3 11.68 ug/m3 25.3 C 80.64 % 1,001.65 mbar 0.83 m/s 169.85 Deg 1.71 ug/m3
2021-07-15 01:00 4.3 ug/m3 66.11 ug/m3 11.05 ug/m3 26.51 C 70.73 % 1,001.08 mbar 0.98 m/s 316.2 Deg 0.08 ug/m3
2021-07-14 17:00 5.05 ug/m3 92.01 ug/m3 17.76 ug/m3 30.12 C 60.53 % 1,000.85 mbar 1.72 m/s 259.23 Deg 0.77 ug/m3
2021-07-14 09:00 6.92 ug/m3 75.92 ug/m3 10.81 ug/m3 26.14 C 80.87 % 1,000.46 mbar 0.69 m/s 235.73 Deg 0.55 ug/m3
2021-07-14 01:00 3.54 ug/m3 93.79 ug/m3 11.01 ug/m3 26.96 C 72.92 % 999.91 mbar 1.38 m/s 224.11 Deg 0.16 ug/m3
2021-07-13 17:00 4.31 ug/m3 87.16 ug/m3 10.97 ug/m3 29.83 C 55.28 % 1,000.40 mbar 2.67 m/s 235.2 Deg 0.85 ug/m3
2021-07-13 09:00 12.03 ug/m3 51.5 ug/m3 11.86 ug/m3 25.56 C 89.68 % 1,000.79 mbar 1.31 m/s 215.81 Deg 1.92 ug/m3
2021-07-13 01:00 2.85 ug/m3 73.67 ug/m3 8.94 ug/m3 26.89 C 79.43 % 1,001.27 mbar 1.22 m/s 221.27 Deg 0.16 ug/m3
2021-07-12 17:00 6.24 ug/m3 91.45 ug/m3 14.58 ug/m3 30.46 C 58.73 % 1,001.44 mbar 1.94 m/s 186.37 Deg 1.27 ug/m3
2021-07-12 09:00 26.8 ug/m3 38.5 ug/m3 12.95 ug/m3 25.06 C 79.34 % 1,001.34 mbar 0.88 m/s 213.07 Deg 5.48 ug/m3
2021-07-12 01:00 6.69 ug/m3 73.24 ug/m3 8.87 ug/m3 26.18 C 68.87 % 1,001.39 mbar 0.89 m/s 265.53 Deg 0.15 ug/m3
2021-07-11 17:00 1.78 ug/m3 92.54 ug/m3 9.34 ug/m3 29.33 C 43.63 % 1,000.56 mbar 2.59 m/s 62.86 Deg 0.32 ug/m3
2021-07-11 09:00 4.66 ug/m3 64.61 ug/m3 8.58 ug/m3 25 C 76.9 % 999.34 mbar 1.47 m/s 186.1 Deg 0.34 ug/m3
2021-07-11 01:00 2.73 ug/m3 77.34 ug/m3 7.61 ug/m3 25.75 C 70.57 % 999.70 mbar 1.12 m/s 301.29 Deg 0.12 ug/m3
2021-07-10 17:00 3.33 ug/m3 92.13 ug/m3 10.48 ug/m3 30.73 C 46.25 % 1,000.68 mbar 2.05 m/s 189.04 Deg 0.51 ug/m3
2021-07-10 09:00 4.74 ug/m3 65.02 ug/m3 9.71 ug/m3 26.37 C 80.4 % 1,001.13 mbar 1.58 m/s 331.97 Deg 0.47 ug/m3
2021-07-10 01:00 2.13 ug/m3 78.61 ug/m3 12.06 ug/m3 27.28 C 76.05 % 1,002.35 mbar 1.66 m/s 325.45 Deg 0.07 ug/m3
2021-07-09 17:00 4.57 ug/m3 73.77 ug/m3 13.74 ug/m3 31.42 C 44.79 % 1,003.97 mbar 1.78 m/s 311.4 Deg 1.3 ug/m3
2021-07-09 09:00 4.97 ug/m3 67.5 ug/m3 10.66 ug/m3 27.17 C 62.94 % 1,004.62 mbar 0.89 m/s 313.76 Deg 0.57 ug/m3
2021-07-09 01:00 5.5 ug/m3 73.02 ug/m3 8.9 ug/m3 28.67 C 57.52 % 1,004.91 mbar 0.9 m/s 297.25 Deg 0.25 ug/m3
2021-07-08 17:00 4.73 ug/m3 90.68 ug/m3 10.54 ug/m3 32.26 C 40.76 % 1,004.58 mbar 1.83 m/s 178.28 Deg 0.97 ug/m3
2021-07-08 09:00 17.79 ug/m3 47.45 ug/m3 12.16 ug/m3 26.48 C 77.82 % 1,003.96 mbar 0.87 m/s 296.69 Deg 3.6 ug/m3
2021-07-08 01:00 6.82 ug/m3 76.28 ug/m3 9.93 ug/m3 28.07 C 56.52 % 1,003.13 mbar 0.88 m/s 266.19 Deg 0.3 ug/m3
2021-07-07 17:00 10.06 ug/m3 101.25 ug/m3 14.63 ug/m3 31.76 C 45.57 % 1,002.10 mbar 1.56 m/s 211.66 Deg 1.73 ug/m3
2021-07-07 09:00 27.28 ug/m3 56.3 ug/m3 13.43 ug/m3 25.63 C 72.09 % 1,001.14 mbar 0.71 m/s 258.33 Deg 5.51 ug/m3
2021-07-07 01:00 10.71 ug/m3 86.77 ug/m3 12.41 ug/m3 26.85 C 64.72 % 1,000.83 mbar 0.9 m/s 272.43 Deg 0.48 ug/m3
2021-07-06 17:00 6.86 ug/m3 91.09 ug/m3 10.83 ug/m3 30.53 C 41.1 % 1,000.59 mbar 1.84 m/s 218.72 Deg 1.45 ug/m3
2021-07-06 09:00 11.05 ug/m3 68.2 ug/m3 10.63 ug/m3 26.28 C 67.85 % 1,000.05 mbar 1.41 m/s 215.33 Deg 2.15 ug/m3
2021-07-06 01:00 4.4 ug/m3 82.62 ug/m3 12.81 ug/m3 26.98 C 67.03 % 999.37 mbar 2.18 m/s 192.63 Deg 0.25 ug/m3
2021-07-05 17:00 3.53 ug/m3 85.35 ug/m3 15.99 ug/m3 28.96 C 63.13 % 998.04 mbar 2.24 m/s 330.6 Deg 0.74 ug/m3
2021-07-05 09:00 5.25 ug/m3 78.98 ug/m3 14.34 ug/m3 26.62 C 72.54 % 998.84 mbar 1.48 m/s 322.79 Deg 0.6 ug/m3
2021-07-05 01:00 5.22 ug/m3 87.17 ug/m3 13.31 ug/m3 28.43 C 53.12 % 999.73 mbar 1.2 m/s 238.18 Deg 0.39 ug/m3
2021-07-04 17:00 2.73 ug/m3 105.24 ug/m3 10.46 ug/m3 33.65 C 22.12 % 1,000.69 mbar 1.67 m/s 244.51 Deg 0.4 ug/m3
2021-07-04 09:00 4.52 ug/m3 101.41 ug/m3 15.26 ug/m3 26.95 C 61.11 % 1,001.67 mbar 1.07 m/s 266.37 Deg 0.3 ug/m3
2021-07-04 01:00 14.46 ug/m3 107.23 ug/m3 16.58 ug/m3 27.79 C 56.25 % 1,001.91 mbar 1.08 m/s 222.88 Deg 0.41 ug/m3
2021-07-03 17:00 3.68 ug/m3 108.2 ug/m3 13.8 ug/m3 33.61 C 25.04 % 1,002.24 mbar 1.78 m/s 131.02 Deg 0.38 ug/m3
2021-07-03 09:00 -2.03 ug/m3 62.28 ug/m3 17.36 ug/m3 27.55 C 50.54 % 1,002.00 mbar 0.83 m/s 288.4 Deg -9.5 ug/m3

It is to be noted that the data is provisional and subject to quality assurance procedures. For validated data kindly refer your request to contact.air@era.org.mt